Detall de PIREP

Printer-friendly versionPDF version

[2012/12/24 16:33:00]
Flight IATA:CT1004
Pilot Number:012
Company ICAO:CAT
Aircraft Type:MD11/E
PAX:0
Aircraft Registration:CARGO
Departing Airport: LEVT
Destination Airport: LEIB
Alternate Airport:LEPA
Online: VATSIM
Route:PPN/M080F320 UM601 BCN/M080F310 UZ174 CORDA
Flight Level:F320
No Slew and time accel
No pause
Crash detect
Detect pilot in Cockpit between each 30 and 45 minutes
16:33 Zero fuel Weight: 378144 Lbs, Fuel Weight: 39146 Lbs
16:33 VATSIM:LEVT 241600Z VRB01KT CAVOK 11/06 Q1011
16:33 VATSIM:LEIB 241600Z 21008KT 7000 OVC007 14/14 Q1017 NOSIG
16:33 VOICE CATALONIAN / X-MAS CHARTER
16:34 Parking Brakes off
16:39 Take-off
16:39 Take off Weight: 416269 Lbs
16:39 Wind: 000º @ 000 Knots Heading: 215º
16:39 POS N42º 53´ 10´´ W002º 43´ 16´´
16:39 Flaps:5 at 167 Knots
16:39 Gear Up: 172 Knots
16:42 Flaps:4 at 209 Knots
16:42 Flaps:5 at 210 Knots
16:42 Flaps:4 at 210 Knots
16:42 Flaps:3 at 211 Knots
16:42 Flaps:2 at 212 Knots
16:42 Flaps:3 at 212 Knots
16:42 Flaps:2 at 213 Knots
16:42 Flaps:1 at 214 Knots
16:42 Flaps:0 at 219 Knots
16:48 TOC
16:48 Fuel Weight: 30808 Lb
16:54 Wind:221º@055 Knots Heading: 123º Ground Speed: 419 Knots Altitude 31978 ft
17:09 Wind:234º@063 Knots Heading: 153º Ground Speed: 473 Knots Altitude 32076 ft
17:17 TOD
17:17 Fuel Weight: 23669 Lb
17:24 Wind:234º@037 Knots Heading: 152º Ground Speed: 380 Knots Altitude 18658 ft
17:33 Flaps:1 at 241 Knots
17:36 Flaps:2 at 207 Knots
17:37 Flaps:3 at 201 Knots
17:37 Flaps:4 at 180 Knots
17:37 Flaps:3 at 179 Knots
17:37 Flaps:4 at 179 Knots
17:37 Flaps:5 at 179 Knots
17:37 Flaps:6 at 179 Knots
17:38 Flaps:7 at 179 Knots
17:38 Gear Down: 181 Knots
17:39 Wind:212º@009 Knots Heading: 238º Ground Speed: 164 Knots Altitude 1427 ft
17:41 TouchDown:Rate -306 ft/min Speed: 137 Knots
17:41 VATSIM:LEIB 241730Z 21008KT 7000 OVC006 14/13 Q1016 NOSIG
17:41 Land
17:41 Wind:212º@009 Knots
17:41 Heading: 244º
17:41 Flight Duration: 01:02
17:41 Landing Weight: 398187 Lbs
17:41 POS N38º 52´ 28´´ E001º 22´ 39´´
17:42 Parking brakes on
17:42 Block to Block Duration: 01:08
17:42 Final Fuel: 19916 Lbls
17:42 Spent Fuel: 19230 Lbls
17:42 Flight Length: 392 NM
17:42 TOD Land Length: 117 NM

Exportar CSV

Powered by Drupal - Modified by Danger4k